sensor_id;sensor_type;location;lat;lon;timestamp;P1;durP1;ratioP1;P2;durP2;ratioP2
19495;SDS011;9888;48.606;9.630;2023-02-22T00:01:52;8.60;;;3.00;;
19495;SDS011;9888;48.606;9.630;2023-02-22T00:04:37;6.90;;;2.30;;
19495;SDS011;9888;48.606;9.630;2023-02-22T00:07:04;7.47;;;2.50;;
19495;SDS011;9888;48.606;9.630;2023-02-22T00:09:32;7.57;;;2.60;;
19495;SDS011;9888;48.606;9.630;2023-02-22T00:12:00;9.73;;;2.93;;
19495;SDS011;9888;48.606;9.630;2023-02-22T00:14:27;9.23;;;2.77;;
19495;SDS011;9888;48.606;9.630;2023-02-22T00:16:54;7.60;;;2.37;;
19495;SDS011;9888;48.606;9.630;2023-02-22T00:19:23;8.43;;;2.40;;
19495;SDS011;9888;48.606;9.630;2023-02-22T00:21:52;7.47;;;2.50;;
19495;SDS011;9888;48.606;9.630;2023-02-22T00:24:19;8.10;;;2.70;;
19495;SDS011;9888;48.606;9.630;2023-02-22T00:26:50;7.23;;;2.10;;
19495;SDS011;9888;48.606;9.630;2023-02-22T00:29:22;8.30;;;2.67;;
19495;SDS011;9888;48.606;9.630;2023-02-22T00:31:49;7.23;;;2.47;;
19495;SDS011;9888;48.606;9.630;2023-02-22T00:34:16;7.67;;;2.40;;
19495;SDS011;9888;48.606;9.630;2023-02-22T00:36:46;9.23;;;2.67;;
19495;SDS011;9888;48.606;9.630;2023-02-22T00:39:14;6.30;;;2.07;;
19495;SDS011;9888;48.606;9.630;2023-02-22T00:41:41;7.83;;;2.20;;
19495;SDS011;9888;48.606;9.630;2023-02-22T00:44:08;8.20;;;2.63;;
19495;SDS011;9888;48.606;9.630;2023-02-22T00:46:36;7.90;;;2.43;;
19495;SDS011;9888;48.606;9.630;2023-02-22T00:49:03;7.57;;;2.77;;
19495;SDS011;9888;48.606;9.630;2023-02-22T00:51:30;7.07;;;2.27;;
19495;SDS011;9888;48.606;9.630;2023-02-22T00:53:58;6.23;;;2.20;;
19495;SDS011;9888;48.606;9.630;2023-02-22T00:56:25;6.50;;;2.10;;
19495;SDS011;9888;48.606;9.630;2023-02-22T00:58:51;6.63;;;2.03;;
19495;SDS011;9888;48.606;9.630;2023-02-22T01:01:18;7.27;;;2.20;;
19495;SDS011;9888;48.606;9.630;2023-02-22T01:03:46;7.17;;;2.03;;
19495;SDS011;9888;48.606;9.630;2023-02-22T01:06:14;8.70;;;2.60;;
19495;SDS011;9888;48.606;9.630;2023-02-22T01:08:45;6.90;;;2.47;;
19495;SDS011;9888;48.606;9.630;2023-02-22T01:11:14;6.80;;;2.50;;
19495;SDS011;9888;48.606;9.630;2023-02-22T01:13:42;7.30;;;2.60;;
19495;SDS011;9888;48.606;9.630;2023-02-22T01:16:13;7.33;;;2.20;;
19495;SDS011;9888;48.606;9.630;2023-02-22T01:18:39;8.87;;;2.40;;
19495;SDS011;9888;48.606;9.630;2023-02-22T01:21:07;7.67;;;2.00;;
19495;SDS011;9888;48.606;9.630;2023-02-22T01:23:34;9.30;;;2.30;;
19495;SDS011;9888;48.606;9.630;2023-02-22T01:26:02;7.80;;;2.40;;
19495;SDS011;9888;48.606;9.630;2023-02-22T01:28:32;7.10;;;2.50;;
19495;SDS011;9888;48.606;9.630;2023-02-22T01:30:59;6.83;;;1.90;;
19495;SDS011;9888;48.606;9.630;2023-02-22T01:33:27;6.60;;;2.10;;
19495;SDS011;9888;48.606;9.630;2023-02-22T01:35:54;10.17;;;2.57;;
19495;SDS011;9888;48.606;9.630;2023-02-22T01:38:21;6.33;;;2.10;;
19495;SDS011;9888;48.606;9.630;2023-02-22T01:40:49;7.83;;;1.93;;
19495;SDS011;9888;48.606;9.630;2023-02-22T01:43:18;6.63;;;2.10;;
19495;SDS011;9888;48.606;9.630;2023-02-22T01:45:55;7.17;;;2.47;;
19495;SDS011;9888;48.606;9.630;2023-02-22T01:48:32;8.03;;;2.30;;
19495;SDS011;9888;48.606;9.630;2023-02-22T01:51:13;7.90;;;1.93;;
19495;SDS011;9888;48.606;9.630;2023-02-22T01:53:45;9.73;;;1.77;;
19495;SDS011;9888;48.606;9.630;2023-02-22T01:56:15;7.23;;;2.37;;
19495;SDS011;9888;48.606;9.630;2023-02-22T01:58:45;6.63;;;2.00;;
19495;SDS011;9888;48.606;9.630;2023-02-22T02:01:27;7.20;;;2.37;;
19495;SDS011;9888;48.606;9.630;2023-02-22T02:03:55;8.10;;;2.37;;
19495;SDS011;9888;48.606;9.630;2023-02-22T02:06:24;6.83;;;2.20;;
19495;SDS011;9888;48.606;9.630;2023-02-22T02:08:54;6.80;;;2.30;;
19495;SDS011;9888;48.606;9.630;2023-02-22T02:11:42;7.17;;;2.00;;
19495;SDS011;9888;48.606;9.630;2023-02-22T02:14:11;6.67;;;2.20;;
19495;SDS011;9888;48.606;9.630;2023-02-22T02:19:14;8.00;;;2.07;;
19495;SDS011;9888;48.606;9.630;2023-02-22T02:33:49;6.17;;;2.37;;
19495;SDS011;9888;48.606;9.630;2023-02-22T02:36:25;6.13;;;2.10;;
19495;SDS011;9888;48.606;9.630;2023-02-22T02:41:36;6.67;;;2.00;;
19495;SDS011;9888;48.606;9.630;2023-02-22T02:44:10;6.67;;;1.97;;
19495;SDS011;9888;48.606;9.630;2023-02-22T02:46:46;8.00;;;2.37;;
19495;SDS011;9888;48.606;9.630;2023-02-22T02:52:25;6.57;;;2.10;;
19495;SDS011;9888;48.606;9.630;2023-02-22T02:54:53;6.83;;;1.40;;
19495;SDS011;9888;48.606;9.630;2023-02-22T02:57:21;6.97;;;1.97;;
19495;SDS011;9888;48.606;9.630;2023-02-22T02:59:49;7.70;;;2.13;;
19495;SDS011;9888;48.606;9.630;2023-02-22T03:02:23;8.17;;;2.27;;
19495;SDS011;9888;48.606;9.630;2023-02-22T03:07:53;7.37;;;2.40;;
19495;SDS011;9888;48.606;9.630;2023-02-22T03:16:19;11.60;;;2.20;;
19495;SDS011;9888;48.606;9.630;2023-02-22T03:18:57;7.67;;;2.00;;
19495;SDS011;9888;48.606;9.630;2023-02-22T03:24:14;8.60;;;2.30;;
19495;SDS011;9888;48.606;9.630;2023-02-22T03:27:07;7.00;;;2.33;;
19495;SDS011;9888;48.606;9.630;2023-02-22T03:29:40;6.93;;;2.13;;
19495;SDS011;9888;48.606;9.630;2023-02-22T03:32:14;6.77;;;2.03;;
19495;SDS011;9888;48.606;9.630;2023-02-22T03:34:56;6.77;;;2.10;;
19495;SDS011;9888;48.606;9.630;2023-02-22T03:37:31;7.20;;;1.80;;
19495;SDS011;9888;48.606;9.630;2023-02-22T03:40:06;7.73;;;1.87;;
19495;SDS011;9888;48.606;9.630;2023-02-22T03:42:42;7.90;;;2.03;;
19495;SDS011;9888;48.606;9.630;2023-02-22T03:45:13;6.03;;;1.90;;
19495;SDS011;9888;48.606;9.630;2023-02-22T03:47:44;8.20;;;2.00;;
19495;SDS011;9888;48.606;9.630;2023-02-22T03:50:17;7.00;;;1.93;;
19495;SDS011;9888;48.606;9.630;2023-02-22T03:52:49;7.50;;;1.87;;
19495;SDS011;9888;48.606;9.630;2023-02-22T03:55:30;5.97;;;2.03;;
19495;SDS011;9888;48.606;9.630;2023-02-22T03:57:57;7.70;;;2.10;;
19495;SDS011;9888;48.606;9.630;2023-02-22T04:00:29;7.90;;;2.70;;
19495;SDS011;9888;48.606;9.630;2023-02-22T04:02:58;6.50;;;1.77;;
19495;SDS011;9888;48.606;9.630;2023-02-22T04:05:36;6.00;;;1.80;;
19495;SDS011;9888;48.606;9.630;2023-02-22T04:08:04;8.07;;;2.00;;
19495;SDS011;9888;48.606;9.630;2023-02-22T04:10:31;7.20;;;2.23;;
19495;SDS011;9888;48.606;9.630;2023-02-22T04:12:59;6.60;;;1.83;;
19495;SDS011;9888;48.606;9.630;2023-02-22T04:15:27;7.13;;;1.77;;
19495;SDS011;9888;48.606;9.630;2023-02-22T04:17:54;5.83;;;1.77;;
19495;SDS011;9888;48.606;9.630;2023-02-22T04:20:21;6.80;;;2.10;;
19495;SDS011;9888;48.606;9.630;2023-02-22T04:22:51;7.20;;;2.00;;
19495;SDS011;9888;48.606;9.630;2023-02-22T04:25:20;5.97;;;1.63;;
19495;SDS011;9888;48.606;9.630;2023-02-22T04:27:48;6.93;;;2.13;;
19495;SDS011;9888;48.606;9.630;2023-02-22T04:33:37;6.40;;;2.40;;
19495;SDS011;9888;48.606;9.630;2023-02-22T04:36:04;6.73;;;2.13;;
19495;SDS011;9888;48.606;9.630;2023-02-22T04:41:54;7.20;;;2.30;;
19495;SDS011;9888;48.606;9.630;2023-02-22T04:44:21;7.70;;;2.20;;
19495;SDS011;9888;48.606;9.630;2023-02-22T04:46:48;8.33;;;2.27;;
19495;SDS011;9888;48.606;9.630;2023-02-22T04:49:15;7.67;;;2.47;;
19495;SDS011;9888;48.606;9.630;2023-02-22T04:51:41;8.20;;;2.93;;
19495;SDS011;9888;48.606;9.630;2023-02-22T04:54:10;6.63;;;2.03;;
19495;SDS011;9888;48.606;9.630;2023-02-22T04:56:42;7.97;;;2.63;;
19495;SDS011;9888;48.606;9.630;2023-02-22T04:59:09;7.70;;;2.73;;
19495;SDS011;9888;48.606;9.630;2023-02-22T05:01:37;9.17;;;3.50;;
19495;SDS011;9888;48.606;9.630;2023-02-22T05:04:04;10.20;;;3.07;;
19495;SDS011;9888;48.606;9.630;2023-02-22T05:06:32;8.87;;;2.90;;
19495;SDS011;9888;48.606;9.630;2023-02-22T05:09:01;8.37;;;2.93;;
19495;SDS011;9888;48.606;9.630;2023-02-22T05:11:28;9.10;;;3.40;;
19495;SDS011;9888;48.606;9.630;2023-02-22T05:13:57;8.00;;;3.20;;
19495;SDS011;9888;48.606;9.630;2023-02-22T05:16:24;9.10;;;2.70;;
19495;SDS011;9888;48.606;9.630;2023-02-22T05:18:51;11.43;;;3.43;;
19495;SDS011;9888;48.606;9.630;2023-02-22T05:21:18;8.70;;;2.97;;
19495;SDS011;9888;48.606;9.630;2023-02-22T05:23:45;8.17;;;3.07;;
19495;SDS011;9888;48.606;9.630;2023-02-22T05:26:11;10.23;;;3.57;;
19495;SDS011;9888;48.606;9.630;2023-02-22T05:28:38;9.50;;;3.23;;
19495;SDS011;9888;48.606;9.630;2023-02-22T05:31:05;9.90;;;3.00;;
19495;SDS011;9888;48.606;9.630;2023-02-22T05:33:33;9.87;;;3.00;;
19495;SDS011;9888;48.606;9.630;2023-02-22T05:36:00;10.57;;;3.20;;
19495;SDS011;9888;48.606;9.630;2023-02-22T05:38:28;10.67;;;3.47;;
19495;SDS011;9888;48.606;9.630;2023-02-22T05:40:55;9.17;;;3.63;;
19495;SDS011;9888;48.606;9.630;2023-02-22T05:43:21;9.13;;;3.53;;
19495;SDS011;9888;48.606;9.630;2023-02-22T05:45:48;9.50;;;3.30;;
19495;SDS011;9888;48.606;9.630;2023-02-22T05:48:15;7.60;;;3.03;;
19495;SDS011;9888;48.606;9.630;2023-02-22T05:50:43;8.70;;;3.47;;
19495;SDS011;9888;48.606;9.630;2023-02-22T05:53:09;9.03;;;3.10;;
19495;SDS011;9888;48.606;9.630;2023-02-22T05:55:36;9.47;;;3.40;;
19495;SDS011;9888;48.606;9.630;2023-02-22T05:58:03;8.47;;;2.93;;
19495;SDS011;9888;48.606;9.630;2023-02-22T06:00:30;10.10;;;2.97;;
19495;SDS011;9888;48.606;9.630;2023-02-22T06:02:58;13.53;;;3.40;;
19495;SDS011;9888;48.606;9.630;2023-02-22T06:05:27;11.43;;;3.53;;
19495;SDS011;9888;48.606;9.630;2023-02-22T06:07:55;10.17;;;3.53;;
19495;SDS011;9888;48.606;9.630;2023-02-22T06:10:22;9.20;;;3.30;;
19495;SDS011;9888;48.606;9.630;2023-02-22T06:12:50;10.17;;;3.87;;
19495;SDS011;9888;48.606;9.630;2023-02-22T06:15:18;10.20;;;4.17;;
19495;SDS011;9888;48.606;9.630;2023-02-22T06:17:47;12.10;;;3.90;;
19495;SDS011;9888;48.606;9.630;2023-02-22T06:20:15;12.60;;;4.40;;
19495;SDS011;9888;48.606;9.630;2023-02-22T06:22:45;14.33;;;4.00;;
19495;SDS011;9888;48.606;9.630;2023-02-22T06:25:14;10.67;;;3.73;;
19495;SDS011;9888;48.606;9.630;2023-02-22T06:27:41;16.17;;;4.30;;
19495;SDS011;9888;48.606;9.630;2023-02-22T06:30:09;9.63;;;4.13;;
19495;SDS011;9888;48.606;9.630;2023-02-22T06:32:37;10.00;;;3.90;;
19495;SDS011;9888;48.606;9.630;2023-02-22T06:35:04;10.97;;;4.60;;
19495;SDS011;9888;48.606;9.630;2023-02-22T06:37:33;15.40;;;4.83;;
19495;SDS011;9888;48.606;9.630;2023-02-22T06:40:00;11.23;;;4.50;;
19495;SDS011;9888;48.606;9.630;2023-02-22T06:42:28;10.27;;;4.40;;
19495;SDS011;9888;48.606;9.630;2023-02-22T06:44:55;14.07;;;4.33;;
19495;SDS011;9888;48.606;9.630;2023-02-22T06:47:22;10.23;;;4.90;;
19495;SDS011;9888;48.606;9.630;2023-02-22T06:49:55;11.73;;;4.33;;
19495;SDS011;9888;48.606;9.630;2023-02-22T06:52:24;11.40;;;4.30;;
19495;SDS011;9888;48.606;9.630;2023-02-22T06:54:51;12.47;;;5.63;;
19495;SDS011;9888;48.606;9.630;2023-02-22T06:57:18;14.80;;;5.27;;
19495;SDS011;9888;48.606;9.630;2023-02-22T06:59:45;15.63;;;6.10;;
19495;SDS011;9888;48.606;9.630;2023-02-22T07:02:12;20.80;;;6.83;;
19495;SDS011;9888;48.606;9.630;2023-02-22T07:04:39;25.57;;;6.77;;
19495;SDS011;9888;48.606;9.630;2023-02-22T07:07:06;17.73;;;6.93;;
19495;SDS011;9888;48.606;9.630;2023-02-22T07:09:33;19.77;;;7.07;;
19495;SDS011;9888;48.606;9.630;2023-02-22T07:12:00;19.30;;;7.07;;
19495;SDS011;9888;48.606;9.630;2023-02-22T07:14:27;22.83;;;7.20;;
19495;SDS011;9888;48.606;9.630;2023-02-22T07:16:54;23.93;;;8.47;;
19495;SDS011;9888;48.606;9.630;2023-02-22T07:19:20;26.00;;;8.77;;
19495;SDS011;9888;48.606;9.630;2023-02-22T07:21:49;16.13;;;7.13;;
19495;SDS011;9888;48.606;9.630;2023-02-22T07:24:24;17.67;;;7.77;;
19495;SDS011;9888;48.606;9.630;2023-02-22T07:26:53;22.73;;;7.70;;
19495;SDS011;9888;48.606;9.630;2023-02-22T07:29:21;17.50;;;7.27;;
19495;SDS011;9888;48.606;9.630;2023-02-22T07:31:48;16.37;;;7.27;;
19495;SDS011;9888;48.606;9.630;2023-02-22T07:34:15;15.70;;;7.80;;
19495;SDS011;9888;48.606;9.630;2023-02-22T07:36:41;19.30;;;8.10;;
19495;SDS011;9888;48.606;9.630;2023-02-22T07:39:09;18.30;;;8.40;;
19495;SDS011;9888;48.606;9.630;2023-02-22T07:41:35;18.47;;;8.03;;
19495;SDS011;9888;48.606;9.630;2023-02-22T07:44:02;18.17;;;7.80;;
19495;SDS011;9888;48.606;9.630;2023-02-22T07:46:29;15.57;;;8.17;;
19495;SDS011;9888;48.606;9.630;2023-02-22T07:48:56;20.60;;;9.40;;
19495;SDS011;9888;48.606;9.630;2023-02-22T07:51:23;17.07;;;9.00;;
19495;SDS011;9888;48.606;9.630;2023-02-22T07:53:51;25.73;;;9.93;;
19495;SDS011;9888;48.606;9.630;2023-02-22T07:56:18;19.57;;;9.47;;
19495;SDS011;9888;48.606;9.630;2023-02-22T07:58:45;22.57;;;9.30;;
19495;SDS011;9888;48.606;9.630;2023-02-22T08:01:12;17.23;;;9.43;;
19495;SDS011;9888;48.606;9.630;2023-02-22T08:03:39;18.80;;;9.17;;
19495;SDS011;9888;48.606;9.630;2023-02-22T08:06:06;41.87;;;11.63;;
19495;SDS011;9888;48.606;9.630;2023-02-22T08:08:33;22.30;;;11.33;;
19495;SDS011;9888;48.606;9.630;2023-02-22T08:11:01;22.13;;;9.23;;
19495;SDS011;9888;48.606;9.630;2023-02-22T08:13:28;20.07;;;8.97;;
19495;SDS011;9888;48.606;9.630;2023-02-22T08:15:55;24.67;;;9.47;;
19495;SDS011;9888;48.606;9.630;2023-02-22T08:18:22;24.73;;;8.57;;
19495;SDS011;9888;48.606;9.630;2023-02-22T08:20:50;17.60;;;7.90;;
19495;SDS011;9888;48.606;9.630;2023-02-22T08:23:18;21.43;;;8.60;;
19495;SDS011;9888;48.606;9.630;2023-02-22T08:25:46;23.50;;;9.07;;
19495;SDS011;9888;48.606;9.630;2023-02-22T08:28:14;20.40;;;8.27;;
19495;SDS011;9888;48.606;9.630;2023-02-22T08:30:44;17.07;;;7.93;;
19495;SDS011;9888;48.606;9.630;2023-02-22T08:33:11;16.17;;;7.67;;
19495;SDS011;9888;48.606;9.630;2023-02-22T08:35:41;17.40;;;6.73;;
19495;SDS011;9888;48.606;9.630;2023-02-22T08:38:14;15.47;;;7.00;;
19495;SDS011;9888;48.606;9.630;2023-02-22T08:40:46;13.70;;;6.07;;
19495;SDS011;9888;48.606;9.630;2023-02-22T08:43:13;16.27;;;6.40;;
19495;SDS011;9888;48.606;9.630;2023-02-22T08:45:40;11.30;;;5.77;;
19495;SDS011;9888;48.606;9.630;2023-02-22T08:48:08;11.10;;;5.30;;
19495;SDS011;9888;48.606;9.630;2023-02-22T08:50:35;12.17;;;4.80;;
19495;SDS011;9888;48.606;9.630;2023-02-22T08:53:03;14.50;;;4.30;;
19495;SDS011;9888;48.606;9.630;2023-02-22T08:55:32;11.47;;;4.07;;
19495;SDS011;9888;48.606;9.630;2023-02-22T08:58:02;10.70;;;3.67;;
19495;SDS011;9888;48.606;9.630;2023-02-22T09:00:30;7.47;;;2.53;;
19495;SDS011;9888;48.606;9.630;2023-02-22T09:02:58;6.90;;;2.60;;
19495;SDS011;9888;48.606;9.630;2023-02-22T09:05:28;8.60;;;2.90;;
19495;SDS011;9888;48.606;9.630;2023-02-22T09:07:56;8.93;;;2.87;;
19495;SDS011;9888;48.606;9.630;2023-02-22T09:10:26;8.57;;;3.40;;
19495;SDS011;9888;48.606;9.630;2023-02-22T09:12:55;9.20;;;3.80;;
19495;SDS011;9888;48.606;9.630;2023-02-22T09:15:25;11.43;;;6.70;;
19495;SDS011;9888;48.606;9.630;2023-02-22T09:17:55;14.40;;;5.27;;
19495;SDS011;9888;48.606;9.630;2023-02-22T09:20:23;8.57;;;4.10;;
19495;SDS011;9888;48.606;9.630;2023-02-22T09:22:50;8.50;;;3.37;;
19495;SDS011;9888;48.606;9.630;2023-02-22T09:25:17;27.33;;;4.23;;
19495;SDS011;9888;48.606;9.630;2023-02-22T09:27:50;7.43;;;2.97;;
19495;SDS011;9888;48.606;9.630;2023-02-22T09:30:31;10.07;;;3.07;;
19495;SDS011;9888;48.606;9.630;2023-02-22T09:33:00;12.00;;;3.30;;
19495;SDS011;9888;48.606;9.630;2023-02-22T09:35:29;9.20;;;2.90;;
19495;SDS011;9888;48.606;9.630;2023-02-22T09:38:01;8.40;;;3.10;;
19495;SDS011;9888;48.606;9.630;2023-02-22T09:40:31;8.20;;;3.37;;
19495;SDS011;9888;48.606;9.630;2023-02-22T09:48:50;9.77;;;4.17;;
19495;SDS011;9888;48.606;9.630;2023-02-22T09:51:31;9.57;;;4.20;;
19495;SDS011;9888;48.606;9.630;2023-02-22T09:54:05;11.77;;;5.70;;
19495;SDS011;9888;48.606;9.630;2023-02-22T09:56:45;12.60;;;7.10;;
19495;SDS011;9888;48.606;9.630;2023-02-22T09:59:14;12.23;;;7.03;;
19495;SDS011;9888;48.606;9.630;2023-02-22T10:01:54;14.33;;;8.17;;
19495;SDS011;9888;48.606;9.630;2023-02-22T10:04:39;13.00;;;7.47;;
19495;SDS011;9888;48.606;9.630;2023-02-22T10:07:25;15.37;;;8.40;;
19495;SDS011;9888;48.606;9.630;2023-02-22T10:10:02;15.10;;;7.90;;
19495;SDS011;9888;48.606;9.630;2023-02-22T10:12:41;13.63;;;7.57;;
19495;SDS011;9888;48.606;9.630;2023-02-22T10:23:40;12.10;;;6.60;;
19495;SDS011;9888;48.606;9.630;2023-02-22T10:26:21;14.40;;;7.00;;
19495;SDS011;9888;48.606;9.630;2023-02-22T10:28:59;13.90;;;6.40;;
19495;SDS011;9888;48.606;9.630;2023-02-22T10:31:35;14.10;;;7.00;;
19495;SDS011;9888;48.606;9.630;2023-02-22T10:34:17;11.90;;;6.20;;
19495;SDS011;9888;48.606;9.630;2023-02-22T10:36:55;13.70;;;6.00;;
19495;SDS011;9888;48.606;9.630;2023-02-22T10:39:42;13.77;;;6.90;;
19495;SDS011;9888;48.606;9.630;2023-02-22T10:42:11;12.77;;;6.53;;
19495;SDS011;9888;48.606;9.630;2023-02-22T10:44:40;11.73;;;6.03;;
19495;SDS011;9888;48.606;9.630;2023-02-22T10:47:09;12.93;;;6.30;;
19495;SDS011;9888;48.606;9.630;2023-02-22T10:49:39;12.80;;;6.13;;
19495;SDS011;9888;48.606;9.630;2023-02-22T10:52:30;15.27;;;6.83;;
19495;SDS011;9888;48.606;9.630;2023-02-22T10:54:59;11.97;;;6.67;;
19495;SDS011;9888;48.606;9.630;2023-02-22T10:57:35;11.43;;;5.40;;
19495;SDS011;9888;48.606;9.630;2023-02-22T11:00:13;12.53;;;5.80;;
19495;SDS011;9888;48.606;9.630;2023-02-22T11:02:56;10.63;;;5.17;;
19495;SDS011;9888;48.606;9.630;2023-02-22T11:05:34;11.00;;;5.40;;
19495;SDS011;9888;48.606;9.630;2023-02-22T11:10:47;13.97;;;5.63;;
19495;SDS011;9888;48.606;9.630;2023-02-22T11:13:17;12.00;;;5.20;;
19495;SDS011;9888;48.606;9.630;2023-02-22T11:18:45;10.20;;;4.53;;
19495;SDS011;9888;48.606;9.630;2023-02-22T11:21:13;12.00;;;4.60;;
19495;SDS011;9888;48.606;9.630;2023-02-22T11:23:47;13.10;;;4.80;;
19495;SDS011;9888;48.606;9.630;2023-02-22T11:26:18;10.53;;;4.80;;
19495;SDS011;9888;48.606;9.630;2023-02-22T11:28:46;11.47;;;5.40;;
19495;SDS011;9888;48.606;9.630;2023-02-22T11:34:42;13.20;;;5.07;;
19495;SDS011;9888;48.606;9.630;2023-02-22T11:39:51;11.70;;;4.83;;
19495;SDS011;9888;48.606;9.630;2023-02-22T11:42:46;13.23;;;4.57;;
19495;SDS011;9888;48.606;9.630;2023-02-22T11:45:32;14.23;;;5.00;;
19495;SDS011;9888;48.606;9.630;2023-02-22T11:48:01;12.23;;;4.70;;
19495;SDS011;9888;48.606;9.630;2023-02-22T11:50:38;10.00;;;5.10;;
19495;SDS011;9888;48.606;9.630;2023-02-22T11:56:06;11.50;;;5.37;;
19495;SDS011;9888;48.606;9.630;2023-02-22T12:02:13;11.33;;;5.07;;
19495;SDS011;9888;48.606;9.630;2023-02-22T12:08:31;11.83;;;4.60;;
19495;SDS011;9888;48.606;9.630;2023-02-22T12:19:53;11.43;;;5.10;;
19495;SDS011;9888;48.606;9.630;2023-02-22T12:22:33;12.00;;;5.37;;
19495;SDS011;9888;48.606;9.630;2023-02-22T12:25:19;11.00;;;5.27;;
19495;SDS011;9888;48.606;9.630;2023-02-22T12:27:57;10.77;;;5.17;;
19495;SDS011;9888;48.606;9.630;2023-02-22T12:30:46;11.20;;;4.97;;
19495;SDS011;9888;48.606;9.630;2023-02-22T12:33:24;9.63;;;4.70;;
19495;SDS011;9888;48.606;9.630;2023-02-22T12:35:55;11.37;;;5.37;;
19495;SDS011;9888;48.606;9.630;2023-02-22T12:38:49;10.43;;;5.87;;
19495;SDS011;9888;48.606;9.630;2023-02-22T12:41:35;10.70;;;5.60;;
19495;SDS011;9888;48.606;9.630;2023-02-22T12:44:17;13.47;;;6.03;;
19495;SDS011;9888;48.606;9.630;2023-02-22T12:46:52;11.30;;;6.20;;
19495;SDS011;9888;48.606;9.630;2023-02-22T12:49:50;15.50;;;6.23;;
19495;SDS011;9888;48.606;9.630;2023-02-22T12:53:29;12.13;;;6.40;;
19495;SDS011;9888;48.606;9.630;2023-02-22T12:55:50;12.63;;;6.23;;
19495;SDS011;9888;48.606;9.630;2023-02-22T12:58:50;15.20;;;6.07;;
19495;SDS011;9888;48.606;9.630;2023-02-22T13:01:34;20.90;;;6.40;;
19495;SDS011;9888;48.606;9.630;2023-02-22T13:04:08;13.63;;;6.20;;
19495;SDS011;9888;48.606;9.630;2023-02-22T13:12:38;11.50;;;6.20;;
19495;SDS011;9888;48.606;9.630;2023-02-22T13:23:47;13.13;;;6.53;;
19495;SDS011;9888;48.606;9.630;2023-02-22T13:26:39;13.80;;;7.07;;
19495;SDS011;9888;48.606;9.630;2023-02-22T13:29:22;13.83;;;6.63;;
19495;SDS011;9888;48.606;9.630;2023-02-22T13:41:13;13.10;;;6.63;;
19495;SDS011;9888;48.606;9.630;2023-02-22T13:46:59;12.80;;;6.83;;
19495;SDS011;9888;48.606;9.630;2023-02-22T13:52:52;16.03;;;7.20;;
19495;SDS011;9888;48.606;9.630;2023-02-22T13:55:29;14.53;;;7.10;;
19495;SDS011;9888;48.606;9.630;2023-02-22T14:01:36;14.23;;;7.40;;
19495;SDS011;9888;48.606;9.630;2023-02-22T14:18:43;14.90;;;8.10;;
19495;SDS011;9888;48.606;9.630;2023-02-22T14:21:17;14.83;;;7.43;;
19495;SDS011;9888;48.606;9.630;2023-02-22T14:23:54;14.83;;;7.50;;
19495;SDS011;9888;48.606;9.630;2023-02-22T14:27:02;14.50;;;7.80;;
19495;SDS011;9888;48.606;9.630;2023-02-22T14:29:33;16.40;;;7.30;;
19495;SDS011;9888;48.606;9.630;2023-02-22T14:32:02;16.10;;;7.13;;
19495;SDS011;9888;48.606;9.630;2023-02-22T14:40:44;17.87;;;8.00;;
19495;SDS011;9888;48.606;9.630;2023-02-22T14:43:20;17.00;;;8.10;;
19495;SDS011;9888;48.606;9.630;2023-02-22T14:45:55;16.00;;;8.27;;
19495;SDS011;9888;48.606;9.630;2023-02-22T14:48:29;16.13;;;8.07;;
19495;SDS011;9888;48.606;9.630;2023-02-22T14:53:45;17.07;;;8.70;;
19495;SDS011;9888;48.606;9.630;2023-02-22T14:56:23;17.60;;;9.03;;
19495;SDS011;9888;48.606;9.630;2023-02-22T14:59:19;15.97;;;8.30;;
19495;SDS011;9888;48.606;9.630;2023-02-22T15:02:18;16.23;;;7.63;;
19495;SDS011;9888;48.606;9.630;2023-02-22T15:04:53;16.50;;;8.17;;
19495;SDS011;9888;48.606;9.630;2023-02-22T15:07:26;15.73;;;8.00;;
19495;SDS011;9888;48.606;9.630;2023-02-22T15:10:41;17.60;;;8.20;;
19495;SDS011;9888;48.606;9.630;2023-02-22T15:13:18;16.67;;;8.33;;
19495;SDS011;9888;48.606;9.630;2023-02-22T15:16:03;14.93;;;7.60;;
19495;SDS011;9888;48.606;9.630;2023-02-22T15:18:38;18.67;;;8.30;;
19495;SDS011;9888;48.606;9.630;2023-02-22T15:21:14;18.30;;;9.20;;
19495;SDS011;9888;48.606;9.630;2023-02-22T15:27:13;16.40;;;7.97;;
19495;SDS011;9888;48.606;9.630;2023-02-22T15:29:44;19.47;;;9.00;;
19495;SDS011;9888;48.606;9.630;2023-02-22T15:32:31;15.90;;;7.83;;
19495;SDS011;9888;48.606;9.630;2023-02-22T15:37:45;21.17;;;8.27;;
19495;SDS011;9888;48.606;9.630;2023-02-22T15:40:16;17.93;;;9.40;;
19495;SDS011;9888;48.606;9.630;2023-02-22T15:42:46;21.13;;;9.07;;
19495;SDS011;9888;48.606;9.630;2023-02-22T15:45:18;16.30;;;8.50;;
19495;SDS011;9888;48.606;9.630;2023-02-22T15:47:49;18.47;;;8.73;;
19495;SDS011;9888;48.606;9.630;2023-02-22T15:50:30;17.57;;;9.57;;
19495;SDS011;9888;48.606;9.630;2023-02-22T15:58:01;19.03;;;9.77;;
19495;SDS011;9888;48.606;9.630;2023-02-22T16:00:38;18.53;;;10.10;;
19495;SDS011;9888;48.606;9.630;2023-02-22T16:03:17;21.13;;;9.67;;
19495;SDS011;9888;48.606;9.630;2023-02-22T16:05:58;18.47;;;9.00;;
19495;SDS011;9888;48.606;9.630;2023-02-22T16:08:46;24.90;;;10.37;;
19495;SDS011;9888;48.606;9.630;2023-02-22T16:11:25;20.37;;;9.77;;
19495;SDS011;9888;48.606;9.630;2023-02-22T16:13:58;18.07;;;9.17;;
19495;SDS011;9888;48.606;9.630;2023-02-22T16:16:28;17.10;;;9.60;;
19495;SDS011;9888;48.606;9.630;2023-02-22T16:21:58;19.10;;;9.50;;
19495;SDS011;9888;48.606;9.630;2023-02-22T16:24:34;27.13;;;9.30;;
19495;SDS011;9888;48.606;9.630;2023-02-22T16:29:40;21.10;;;9.70;;
19495;SDS011;9888;48.606;9.630;2023-02-22T16:32:07;17.83;;;9.03;;
19495;SDS011;9888;48.606;9.630;2023-02-22T16:34:34;19.27;;;7.83;;
19495;SDS011;9888;48.606;9.630;2023-02-22T16:37:02;17.53;;;9.03;;
19495;SDS011;9888;48.606;9.630;2023-02-22T16:39:30;22.23;;;8.77;;
19495;SDS011;9888;48.606;9.630;2023-02-22T16:42:01;21.67;;;9.30;;
19495;SDS011;9888;48.606;9.630;2023-02-22T16:44:29;18.70;;;10.03;;
19495;SDS011;9888;48.606;9.630;2023-02-22T16:46:58;16.40;;;7.90;;
19495;SDS011;9888;48.606;9.630;2023-02-22T16:49:25;17.20;;;8.60;;
19495;SDS011;9888;48.606;9.630;2023-02-22T16:51:53;19.40;;;8.67;;
19495;SDS011;9888;48.606;9.630;2023-02-22T16:54:32;16.50;;;8.20;;
19495;SDS011;9888;48.606;9.630;2023-02-22T16:57:01;15.77;;;8.60;;
19495;SDS011;9888;48.606;9.630;2023-02-22T16:59:30;22.53;;;9.30;;
19495;SDS011;9888;48.606;9.630;2023-02-22T17:02:04;16.27;;;8.23;;
19495;SDS011;9888;48.606;9.630;2023-02-22T17:04:36;16.70;;;7.90;;
19495;SDS011;9888;48.606;9.630;2023-02-22T17:07:05;18.03;;;8.70;;
19495;SDS011;9888;48.606;9.630;2023-02-22T17:09:33;16.93;;;8.37;;
19495;SDS011;9888;48.606;9.630;2023-02-22T17:12:00;18.93;;;8.40;;
19495;SDS011;9888;48.606;9.630;2023-02-22T17:14:29;18.43;;;9.03;;
19495;SDS011;9888;48.606;9.630;2023-02-22T17:16:58;18.67;;;8.93;;
19495;SDS011;9888;48.606;9.630;2023-02-22T17:19:26;24.40;;;8.60;;
19495;SDS011;9888;48.606;9.630;2023-02-22T17:21:54;15.20;;;8.27;;
19495;SDS011;9888;48.606;9.630;2023-02-22T17:24:23;20.37;;;8.20;;
19495;SDS011;9888;48.606;9.630;2023-02-22T17:26:53;15.90;;;8.53;;
19495;SDS011;9888;48.606;9.630;2023-02-22T17:29:25;18.50;;;9.40;;
19495;SDS011;9888;48.606;9.630;2023-02-22T17:31:54;15.80;;;8.33;;
19495;SDS011;9888;48.606;9.630;2023-02-22T17:34:22;18.70;;;7.73;;
19495;SDS011;9888;48.606;9.630;2023-02-22T17:36:50;22.03;;;8.70;;
19495;SDS011;9888;48.606;9.630;2023-02-22T17:39:17;18.17;;;7.97;;
19495;SDS011;9888;48.606;9.630;2023-02-22T17:41:44;16.43;;;8.27;;
19495;SDS011;9888;48.606;9.630;2023-02-22T17:44:15;19.20;;;8.57;;
19495;SDS011;9888;48.606;9.630;2023-02-22T17:46:42;20.10;;;8.63;;
19495;SDS011;9888;48.606;9.630;2023-02-22T17:49:09;18.77;;;8.53;;
19495;SDS011;9888;48.606;9.630;2023-02-22T17:51:39;17.57;;;8.87;;
19495;SDS011;9888;48.606;9.630;2023-02-22T17:54:06;19.40;;;9.50;;
19495;SDS011;9888;48.606;9.630;2023-02-22T17:56:33;18.57;;;9.70;;
19495;SDS011;9888;48.606;9.630;2023-02-22T17:59:01;18.30;;;8.83;;